sensor_id;sensor_type;location;lat;lon;timestamp;P1;durP1;ratioP1;P2;durP2;ratioP2
3815;SDS011;1923;48.154;11.536;2023-03-23T00:01:25;3.53;;;2.77;;
3815;SDS011;1923;48.154;11.536;2023-03-23T00:03:55;6.30;;;3.37;;
3815;SDS011;1923;48.154;11.536;2023-03-23T00:06:24;3.07;;;2.60;;
3815;SDS011;1923;48.154;11.536;2023-03-23T00:08:54;5.70;;;2.40;;
3815;SDS011;1923;48.154;11.536;2023-03-23T00:11:25;4.70;;;2.53;;
3815;SDS011;1923;48.154;11.536;2023-03-23T00:13:55;5.93;;;2.47;;
3815;SDS011;1923;48.154;11.536;2023-03-23T00:16:26;3.57;;;2.60;;
3815;SDS011;1923;48.154;11.536;2023-03-23T00:18:57;3.97;;;2.67;;
3815;SDS011;1923;48.154;11.536;2023-03-23T00:21:26;6.57;;;2.20;;
3815;SDS011;1923;48.154;11.536;2023-03-23T00:24:04;2.70;;;1.95;;
3815;SDS011;1923;48.154;11.536;2023-03-23T00:26:33;3.20;;;2.27;;
3815;SDS011;1923;48.154;11.536;2023-03-23T00:29:02;7.40;;;2.50;;
3815;SDS011;1923;48.154;11.536;2023-03-23T00:31:30;3.63;;;2.03;;
3815;SDS011;1923;48.154;11.536;2023-03-23T00:33:58;4.90;;;2.60;;
3815;SDS011;1923;48.154;11.536;2023-03-23T00:36:29;3.33;;;2.60;;
3815;SDS011;1923;48.154;11.536;2023-03-23T00:38:57;3.27;;;2.40;;
3815;SDS011;1923;48.154;11.536;2023-03-23T00:41:27;3.50;;;2.33;;
3815;SDS011;1923;48.154;11.536;2023-03-23T00:43:55;2.78;;;2.00;;
3815;SDS011;1923;48.154;11.536;2023-03-23T00:46:25;2.67;;;1.92;;
3815;SDS011;1923;48.154;11.536;2023-03-23T00:48:53;5.40;;;2.40;;
3815;SDS011;1923;48.154;11.536;2023-03-23T00:51:22;4.90;;;2.10;;
3815;SDS011;1923;48.154;11.536;2023-03-23T00:53:49;2.37;;;2.03;;
3815;SDS011;1923;48.154;11.536;2023-03-23T00:56:17;3.90;;;2.30;;
3815;SDS011;1923;48.154;11.536;2023-03-23T00:58:45;3.30;;;2.77;;
3815;SDS011;1923;48.154;11.536;2023-03-23T01:01:12;2.73;;;2.00;;
3815;SDS011;1923;48.154;11.536;2023-03-23T01:03:39;2.37;;;2.17;;
3815;SDS011;1923;48.154;11.536;2023-03-23T01:06:07;3.60;;;2.20;;
3815;SDS011;1923;48.154;11.536;2023-03-23T01:08:38;6.87;;;3.07;;
3815;SDS011;1923;48.154;11.536;2023-03-23T01:11:10;2.57;;;1.70;;
3815;SDS011;1923;48.154;11.536;2023-03-23T01:13:38;3.77;;;2.10;;
3815;SDS011;1923;48.154;11.536;2023-03-23T01:16:07;4.07;;;2.50;;
3815;SDS011;1923;48.154;11.536;2023-03-23T09:07:50;3.50;;;2.17;;
3815;SDS011;1923;48.154;11.536;2023-03-23T09:10:19;3.90;;;2.13;;
3815;SDS011;1923;48.154;11.536;2023-03-23T09:12:47;5.33;;;1.67;;
3815;SDS011;1923;48.154;11.536;2023-03-23T09:15:16;2.57;;;1.33;;
3815;SDS011;1923;48.154;11.536;2023-03-23T09:17:44;2.27;;;1.40;;
3815;SDS011;1923;48.154;11.536;2023-03-23T09:20:14;3.47;;;2.10;;
3815;SDS011;1923;48.154;11.536;2023-03-23T09:22:44;5.63;;;2.17;;
3815;SDS011;1923;48.154;11.536;2023-03-23T09:25:14;4.43;;;2.07;;
3815;SDS011;1923;48.154;11.536;2023-03-23T09:27:44;9.37;;;2.13;;
3815;SDS011;1923;48.154;11.536;2023-03-23T09:30:14;2.50;;;1.87;;
3815;SDS011;1923;48.154;11.536;2023-03-23T09:32:41;5.22;;;1.70;;
3815;SDS011;1923;48.154;11.536;2023-03-23T09:35:10;6.73;;;2.20;;
3815;SDS011;1923;48.154;11.536;2023-03-23T09:37:44;2.93;;;1.60;;
3815;SDS011;1923;48.154;11.536;2023-03-23T09:40:15;5.20;;;2.50;;
3815;SDS011;1923;48.154;11.536;2023-03-23T09:42:48;7.80;;;2.13;;
3815;SDS011;1923;48.154;11.536;2023-03-23T09:45:29;3.27;;;2.37;;
3815;SDS011;1923;48.154;11.536;2023-03-23T09:48:23;4.10;;;2.17;;
3815;SDS011;1923;48.154;11.536;2023-03-23T09:51:00;4.33;;;2.43;;
3815;SDS011;1923;48.154;11.536;2023-03-23T09:53:32;3.23;;;2.13;;
3815;SDS011;1923;48.154;11.536;2023-03-23T09:56:09;4.40;;;2.37;;
3815;SDS011;1923;48.154;11.536;2023-03-23T09:58:41;4.20;;;2.37;;
3815;SDS011;1923;48.154;11.536;2023-03-23T10:01:16;5.83;;;3.30;;
3815;SDS011;1923;48.154;11.536;2023-03-23T10:03:48;7.50;;;2.93;;
3815;SDS011;1923;48.154;11.536;2023-03-23T10:06:21;4.27;;;2.43;;
3815;SDS011;1923;48.154;11.536;2023-03-23T10:08:49;3.80;;;2.50;;
3815;SDS011;1923;48.154;11.536;2023-03-23T10:11:22;2.90;;;2.03;;
3815;SDS011;1923;48.154;11.536;2023-03-23T10:14:01;3.03;;;2.03;;
3815;SDS011;1923;48.154;11.536;2023-03-23T10:16:40;4.10;;;2.07;;
3815;SDS011;1923;48.154;11.536;2023-03-23T10:19:15;3.37;;;2.00;;
3815;SDS011;1923;48.154;11.536;2023-03-23T10:21:48;3.80;;;2.17;;
3815;SDS011;1923;48.154;11.536;2023-03-23T10:24:19;2.90;;;2.20;;
3815;SDS011;1923;48.154;11.536;2023-03-23T10:26:56;4.07;;;2.47;;
3815;SDS011;1923;48.154;11.536;2023-03-23T10:29:29;4.33;;;2.60;;
3815;SDS011;1923;48.154;11.536;2023-03-23T10:32:02;2.50;;;1.93;;
3815;SDS011;1923;48.154;11.536;2023-03-23T10:34:43;5.07;;;2.13;;
3815;SDS011;1923;48.154;11.536;2023-03-23T10:37:16;2.53;;;1.90;;
3815;SDS011;1923;48.154;11.536;2023-03-23T10:39:48;2.50;;;2.10;;
3815;SDS011;1923;48.154;11.536;2023-03-23T10:42:23;3.23;;;2.07;;
3815;SDS011;1923;48.154;11.536;2023-03-23T10:44:51;4.80;;;1.90;;
3815;SDS011;1923;48.154;11.536;2023-03-23T10:47:19;3.80;;;1.90;;
3815;SDS011;1923;48.154;11.536;2023-03-23T10:49:47;4.10;;;2.33;;
3815;SDS011;1923;48.154;11.536;2023-03-23T10:52:27;4.57;;;2.27;;
3815;SDS011;1923;48.154;11.536;2023-03-23T10:55:01;3.30;;;1.50;;
3815;SDS011;1923;48.154;11.536;2023-03-23T10:57:31;4.00;;;2.40;;
3815;SDS011;1923;48.154;11.536;2023-03-23T11:00:00;2.90;;;1.63;;
3815;SDS011;1923;48.154;11.536;2023-03-23T11:02:35;5.07;;;2.30;;
3815;SDS011;1923;48.154;11.536;2023-03-23T11:05:06;3.70;;;2.07;;
3815;SDS011;1923;48.154;11.536;2023-03-23T11:07:39;2.70;;;1.80;;
3815;SDS011;1923;48.154;11.536;2023-03-23T11:10:15;6.60;;;2.93;;
3815;SDS011;1923;48.154;11.536;2023-03-23T11:12:47;4.53;;;2.30;;
3815;SDS011;1923;48.154;11.536;2023-03-23T11:15:20;6.70;;;2.80;;
3815;SDS011;1923;48.154;11.536;2023-03-23T11:17:55;3.80;;;2.50;;
3815;SDS011;1923;48.154;11.536;2023-03-23T11:20:23;3.77;;;2.40;;
3815;SDS011;1923;48.154;11.536;2023-03-23T11:22:51;4.33;;;2.10;;
3815;SDS011;1923;48.154;11.536;2023-03-23T11:25:19;4.80;;;2.17;;
3815;SDS011;1923;48.154;11.536;2023-03-23T11:27:47;3.20;;;1.67;;
3815;SDS011;1923;48.154;11.536;2023-03-23T11:30:19;4.53;;;2.30;;
3815;SDS011;1923;48.154;11.536;2023-03-23T11:32:49;5.33;;;3.13;;
3815;SDS011;1923;48.154;11.536;2023-03-23T11:35:19;3.80;;;2.20;;
3815;SDS011;1923;48.154;11.536;2023-03-23T11:37:48;4.97;;;2.50;;
3815;SDS011;1923;48.154;11.536;2023-03-23T11:40:18;5.90;;;2.50;;
3815;SDS011;1923;48.154;11.536;2023-03-23T11:42:49;5.37;;;2.17;;
3815;SDS011;1923;48.154;11.536;2023-03-23T11:45:25;5.47;;;2.30;;
3815;SDS011;1923;48.154;11.536;2023-03-23T11:48:01;4.43;;;2.57;;
3815;SDS011;1923;48.154;11.536;2023-03-23T11:50:43;3.80;;;2.53;;
3815;SDS011;1923;48.154;11.536;2023-03-23T11:53:15;7.13;;;2.40;;
3815;SDS011;1923;48.154;11.536;2023-03-23T11:55:55;4.35;;;2.60;;
3815;SDS011;1923;48.154;11.536;2023-03-23T11:58:31;3.90;;;2.30;;
3815;SDS011;1923;48.154;11.536;2023-03-23T12:01:00;3.53;;;2.20;;
3815;SDS011;1923;48.154;11.536;2023-03-23T12:06:43;6.03;;;2.70;;
3815;SDS011;1923;48.154;11.536;2023-03-23T12:09:19;5.40;;;2.87;;
3815;SDS011;1923;48.154;11.536;2023-03-23T12:11:58;7.80;;;3.10;;
3815;SDS011;1923;48.154;11.536;2023-03-23T12:14:37;5.00;;;2.95;;
3815;SDS011;1923;48.154;11.536;2023-03-23T12:17:14;4.83;;;2.70;;
3815;SDS011;1923;48.154;11.536;2023-03-23T12:19:50;3.33;;;2.00;;
3815;SDS011;1923;48.154;11.536;2023-03-23T12:22:33;3.83;;;2.33;;
3815;SDS011;1923;48.154;11.536;2023-03-23T12:25:15;7.07;;;2.70;;
3815;SDS011;1923;48.154;11.536;2023-03-23T12:28:02;4.43;;;2.43;;
3815;SDS011;1923;48.154;11.536;2023-03-23T12:30:39;3.27;;;2.10;;
3815;SDS011;1923;48.154;11.536;2023-03-23T12:33:17;7.50;;;2.97;;
3815;SDS011;1923;48.154;11.536;2023-03-23T12:35:52;5.20;;;2.57;;
3815;SDS011;1923;48.154;11.536;2023-03-23T12:38:30;6.97;;;2.50;;
3815;SDS011;1923;48.154;11.536;2023-03-23T12:41:19;3.70;;;2.80;;
3815;SDS011;1923;48.154;11.536;2023-03-23T12:43:51;13.60;;;2.67;;
3815;SDS011;1923;48.154;11.536;2023-03-23T12:46:24;4.60;;;1.93;;
3815;SDS011;1923;48.154;11.536;2023-03-23T12:49:27;3.22;;;2.05;;
3815;SDS011;1923;48.154;11.536;2023-03-23T12:52:01;3.17;;;2.00;;
3815;SDS011;1923;48.154;11.536;2023-03-23T12:54:32;2.03;;;1.80;;
3815;SDS011;1923;48.154;11.536;2023-03-23T12:57:04;3.33;;;1.63;;
3815;SDS011;1923;48.154;11.536;2023-03-23T12:59:39;4.67;;;1.87;;
3815;SDS011;1923;48.154;11.536;2023-03-23T13:02:15;3.67;;;1.93;;
3815;SDS011;1923;48.154;11.536;2023-03-23T13:04:48;4.10;;;1.97;;
3815;SDS011;1923;48.154;11.536;2023-03-23T13:07:19;2.73;;;1.80;;
3815;SDS011;1923;48.154;11.536;2023-03-23T13:09:53;3.03;;;1.90;;
3815;SDS011;1923;48.154;11.536;2023-03-23T13:12:29;4.17;;;1.67;;
3815;SDS011;1923;48.154;11.536;2023-03-23T13:15:00;3.23;;;1.33;;
3815;SDS011;1923;48.154;11.536;2023-03-23T13:17:41;5.00;;;2.23;;
3815;SDS011;1923;48.154;11.536;2023-03-23T13:20:26;4.50;;;2.30;;
3815;SDS011;1923;48.154;11.536;2023-03-23T13:23:08;2.63;;;1.43;;
3815;SDS011;1923;48.154;11.536;2023-03-23T13:25:44;4.57;;;1.70;;
3815;SDS011;1923;48.154;11.536;2023-03-23T13:28:16;3.88;;;1.65;;
3815;SDS011;1923;48.154;11.536;2023-03-23T13:31:01;2.50;;;1.80;;
3815;SDS011;1923;48.154;11.536;2023-03-23T13:33:33;4.70;;;1.40;;
3815;SDS011;1923;48.154;11.536;2023-03-23T13:36:07;2.60;;;1.50;;
3815;SDS011;1923;48.154;11.536;2023-03-23T13:38:36;2.40;;;1.50;;
3815;SDS011;1923;48.154;11.536;2023-03-23T13:41:06;2.40;;;1.67;;
3815;SDS011;1923;48.154;11.536;2023-03-23T13:43:35;1.73;;;1.23;;
3815;SDS011;1923;48.154;11.536;2023-03-23T13:46:06;3.43;;;1.60;;
3815;SDS011;1923;48.154;11.536;2023-03-23T13:48:44;4.20;;;2.00;;
3815;SDS011;1923;48.154;11.536;2023-03-23T13:51:24;3.00;;;1.40;;
3815;SDS011;1923;48.154;11.536;2023-03-23T13:54:05;1.63;;;1.20;;
3815;SDS011;1923;48.154;11.536;2023-03-23T13:56:41;2.80;;;2.20;;
3815;SDS011;1923;48.154;11.536;2023-03-23T13:59:13;3.13;;;1.70;;
3815;SDS011;1923;48.154;11.536;2023-03-23T14:01:41;3.07;;;2.77;;
3815;SDS011;1923;48.154;11.536;2023-03-23T14:04:12;2.60;;;1.57;;
3815;SDS011;1923;48.154;11.536;2023-03-23T14:06:43;3.90;;;1.30;;
3815;SDS011;1923;48.154;11.536;2023-03-23T14:09:13;3.80;;;1.90;;
3815;SDS011;1923;48.154;11.536;2023-03-23T14:11:49;2.50;;;1.60;;
3815;SDS011;1923;48.154;11.536;2023-03-23T14:14:23;1.80;;;1.43;;
3815;SDS011;1923;48.154;11.536;2023-03-23T14:16:54;2.00;;;1.60;;
3815;SDS011;1923;48.154;11.536;2023-03-23T14:19:37;2.80;;;1.30;;
3815;SDS011;1923;48.154;11.536;2023-03-23T14:22:04;2.10;;;1.33;;
3815;SDS011;1923;48.154;11.536;2023-03-23T14:24:44;2.67;;;1.60;;
3815;SDS011;1923;48.154;11.536;2023-03-23T14:27:12;2.83;;;1.27;;
3815;SDS011;1923;48.154;11.536;2023-03-23T14:29:40;2.00;;;1.40;;
3815;SDS011;1923;48.154;11.536;2023-03-23T14:32:12;3.50;;;1.37;;
3815;SDS011;1923;48.154;11.536;2023-03-23T14:34:46;4.63;;;1.60;;
3815;SDS011;1923;48.154;11.536;2023-03-23T14:37:14;1.67;;;1.40;;
3815;SDS011;1923;48.154;11.536;2023-03-23T14:39:43;3.80;;;1.80;;
3815;SDS011;1923;48.154;11.536;2023-03-23T14:42:13;2.20;;;1.50;;
3815;SDS011;1923;48.154;11.536;2023-03-23T14:44:43;2.80;;;1.30;;
3815;SDS011;1923;48.154;11.536;2023-03-23T14:47:13;2.43;;;1.57;;
3815;SDS011;1923;48.154;11.536;2023-03-23T14:49:46;4.40;;;1.83;;
3815;SDS011;1923;48.154;11.536;2023-03-23T14:52:14;2.10;;;1.53;;
3815;SDS011;1923;48.154;11.536;2023-03-23T14:54:42;3.47;;;2.20;;
3815;SDS011;1923;48.154;11.536;2023-03-23T14:57:11;3.00;;;1.80;;
3815;SDS011;1923;48.154;11.536;2023-03-23T14:59:40;3.13;;;1.80;;
3815;SDS011;1923;48.154;11.536;2023-03-23T15:02:10;3.03;;;1.77;;
3815;SDS011;1923;48.154;11.536;2023-03-23T15:04:39;2.73;;;1.43;;
3815;SDS011;1923;48.154;11.536;2023-03-23T15:07:10;3.20;;;2.10;;
3815;SDS011;1923;48.154;11.536;2023-03-23T15:09:41;4.13;;;1.87;;
3815;SDS011;1923;48.154;11.536;2023-03-23T15:12:13;3.23;;;2.20;;
3815;SDS011;1923;48.154;11.536;2023-03-23T15:14:48;2.43;;;1.57;;
3815;SDS011;1923;48.154;11.536;2023-03-23T15:17:18;3.43;;;1.77;;
3815;SDS011;1923;48.154;11.536;2023-03-23T15:19:46;2.50;;;1.80;;
3815;SDS011;1923;48.154;11.536;2023-03-23T15:22:17;2.63;;;1.80;;
3815;SDS011;1923;48.154;11.536;2023-03-23T15:24:47;5.13;;;1.70;;
3815;SDS011;1923;48.154;11.536;2023-03-23T15:27:16;6.13;;;2.50;;
3815;SDS011;1923;48.154;11.536;2023-03-23T15:29:50;3.60;;;2.07;;
3815;SDS011;1923;48.154;11.536;2023-03-23T15:32:22;3.50;;;1.90;;
3815;SDS011;1923;48.154;11.536;2023-03-23T15:34:51;4.23;;;2.17;;
3815;SDS011;1923;48.154;11.536;2023-03-23T15:37:21;4.37;;;2.40;;
3815;SDS011;1923;48.154;11.536;2023-03-23T15:39:52;2.97;;;1.93;;
3815;SDS011;1923;48.154;11.536;2023-03-23T15:42:20;3.50;;;2.57;;
3815;SDS011;1923;48.154;11.536;2023-03-23T15:44:57;3.47;;;2.10;;
3815;SDS011;1923;48.154;11.536;2023-03-23T15:47:35;3.97;;;2.20;;
3815;SDS011;1923;48.154;11.536;2023-03-23T15:50:08;4.13;;;2.57;;
3815;SDS011;1923;48.154;11.536;2023-03-23T15:52:40;3.93;;;2.20;;
3815;SDS011;1923;48.154;11.536;2023-03-23T15:55:21;3.70;;;2.07;;
3815;SDS011;1923;48.154;11.536;2023-03-23T15:57:50;4.90;;;2.30;;
3815;SDS011;1923;48.154;11.536;2023-03-23T16:00:19;4.90;;;2.50;;
3815;SDS011;1923;48.154;11.536;2023-03-23T16:02:51;4.45;;;2.38;;
3815;SDS011;1923;48.154;11.536;2023-03-23T16:05:22;3.67;;;2.00;;
3815;SDS011;1923;48.154;11.536;2023-03-23T16:07:52;2.70;;;1.93;;
3815;SDS011;1923;48.154;11.536;2023-03-23T16:10:22;5.60;;;2.33;;
3815;SDS011;1923;48.154;11.536;2023-03-23T16:12:56;3.80;;;1.70;;
3815;SDS011;1923;48.154;11.536;2023-03-23T16:15:25;3.57;;;1.67;;
3815;SDS011;1923;48.154;11.536;2023-03-23T16:17:54;3.50;;;1.50;;
3815;SDS011;1923;48.154;11.536;2023-03-23T16:20:23;2.93;;;1.63;;
3815;SDS011;1923;48.154;11.536;2023-03-23T16:22:53;4.67;;;1.97;;
3815;SDS011;1923;48.154;11.536;2023-03-23T16:25:21;3.40;;;1.97;;
3815;SDS011;1923;48.154;11.536;2023-03-23T16:27:49;4.30;;;2.13;;
3815;SDS011;1923;48.154;11.536;2023-03-23T16:30:20;5.97;;;2.77;;
3815;SDS011;1923;48.154;11.536;2023-03-23T16:32:50;3.70;;;2.37;;
3815;SDS011;1923;48.154;11.536;2023-03-23T16:35:22;4.00;;;2.20;;
3815;SDS011;1923;48.154;11.536;2023-03-23T16:37:51;2.30;;;1.70;;
3815;SDS011;1923;48.154;11.536;2023-03-23T16:40:34;2.60;;;1.87;;
3815;SDS011;1923;48.154;11.536;2023-03-23T16:43:03;2.93;;;2.30;;
3815;SDS011;1923;48.154;11.536;2023-03-23T16:45:35;4.30;;;2.20;;
3815;SDS011;1923;48.154;11.536;2023-03-23T16:48:09;5.60;;;2.20;;
3815;SDS011;1923;48.154;11.536;2023-03-23T16:50:38;2.90;;;2.00;;
3815;SDS011;1923;48.154;11.536;2023-03-23T16:53:08;3.73;;;2.27;;
3815;SDS011;1923;48.154;11.536;2023-03-23T16:55:37;6.63;;;2.63;;
3815;SDS011;1923;48.154;11.536;2023-03-23T16:58:07;3.80;;;2.10;;
3815;SDS011;1923;48.154;11.536;2023-03-23T17:00:44;4.13;;;2.37;;
3815;SDS011;1923;48.154;11.536;2023-03-23T17:03:15;4.93;;;2.70;;
3815;SDS011;1923;48.154;11.536;2023-03-23T17:05:44;4.90;;;2.60;;
3815;SDS011;1923;48.154;11.536;2023-03-23T17:08:16;3.43;;;2.00;;
3815;SDS011;1923;48.154;11.536;2023-03-23T17:10:46;3.70;;;2.33;;
3815;SDS011;1923;48.154;11.536;2023-03-23T17:13:14;3.00;;;2.13;;
3815;SDS011;1923;48.154;11.536;2023-03-23T17:15:43;4.57;;;2.90;;
3815;SDS011;1923;48.154;11.536;2023-03-23T17:18:13;6.43;;;2.57;;
3815;SDS011;1923;48.154;11.536;2023-03-23T17:20:42;5.40;;;2.77;;
3815;SDS011;1923;48.154;11.536;2023-03-23T17:23:10;6.60;;;3.20;;
3815;SDS011;1923;48.154;11.536;2023-03-23T17:25:40;9.00;;;3.03;;
3815;SDS011;1923;48.154;11.536;2023-03-23T17:28:10;4.30;;;2.90;;
3815;SDS011;1923;48.154;11.536;2023-03-23T17:30:42;6.03;;;2.87;;
3815;SDS011;1923;48.154;11.536;2023-03-23T17:33:11;7.10;;;2.80;;
3815;SDS011;1923;48.154;11.536;2023-03-23T17:35:40;4.97;;;2.70;;
3815;SDS011;1923;48.154;11.536;2023-03-23T17:38:09;5.03;;;2.87;;
3815;SDS011;1923;48.154;11.536;2023-03-23T17:40:37;5.83;;;3.03;;
3815;SDS011;1923;48.154;11.536;2023-03-23T17:43:08;6.67;;;3.03;;
3815;SDS011;1923;48.154;11.536;2023-03-23T17:45:36;5.17;;;2.87;;
3815;SDS011;1923;48.154;11.536;2023-03-23T17:48:05;4.17;;;2.30;;
3815;SDS011;1923;48.154;11.536;2023-03-23T17:50:34;5.07;;;2.40;;
3815;SDS011;1923;48.154;11.536;2023-03-23T17:53:02;5.73;;;2.90;;
3815;SDS011;1923;48.154;11.536;2023-03-23T17:55:31;4.07;;;2.83;;
3815;SDS011;1923;48.154;11.536;2023-03-23T17:58:00;7.50;;;2.30;;
3815;SDS011;1923;48.154;11.536;2023-03-23T18:00:28;8.23;;;3.17;;
3815;SDS011;1923;48.154;11.536;2023-03-23T18:02:56;4.70;;;2.60;;
3815;SDS011;1923;48.154;11.536;2023-03-23T18:05:25;8.10;;;3.67;;
3815;SDS011;1923;48.154;11.536;2023-03-23T18:07:53;7.60;;;3.70;;
3815;SDS011;1923;48.154;11.536;2023-03-23T18:10:21;6.13;;;3.43;;
3815;SDS011;1923;48.154;11.536;2023-03-23T18:12:49;6.10;;;2.73;;
3815;SDS011;1923;48.154;11.536;2023-03-23T18:15:20;9.77;;;3.70;;
3815;SDS011;1923;48.154;11.536;2023-03-23T18:17:54;4.97;;;2.70;;
3815;SDS011;1923;48.154;11.536;2023-03-23T18:20:23;7.57;;;3.33;;
3815;SDS011;1923;48.154;11.536;2023-03-23T18:22:51;6.60;;;3.23;;
3815;SDS011;1923;48.154;11.536;2023-03-23T18:25:19;7.00;;;2.72;;
3815;SDS011;1923;48.154;11.536;2023-03-23T18:27:51;14.87;;;4.90;;
3815;SDS011;1923;48.154;11.536;2023-03-23T18:30:20;8.17;;;4.07;;
3815;SDS011;1923;48.154;11.536;2023-03-23T18:32:49;10.23;;;5.07;;
3815;SDS011;1923;48.154;11.536;2023-03-23T18:35:17;11.60;;;4.17;;
3815;SDS011;1923;48.154;11.536;2023-03-23T18:37:45;4.57;;;3.17;;
3815;SDS011;1923;48.154;11.536;2023-03-23T18:40:15;6.83;;;3.67;;
3815;SDS011;1923;48.154;11.536;2023-03-23T18:42:45;5.83;;;3.53;;
3815;SDS011;1923;48.154;11.536;2023-03-23T18:45:14;10.73;;;4.17;;
3815;SDS011;1923;48.154;11.536;2023-03-23T18:47:43;8.47;;;4.37;;
3815;SDS011;1923;48.154;11.536;2023-03-23T18:50:12;6.37;;;3.60;;
3815;SDS011;1923;48.154;11.536;2023-03-23T18:52:41;5.87;;;3.23;;
3815;SDS011;1923;48.154;11.536;2023-03-23T18:55:10;13.80;;;4.33;;
3815;SDS011;1923;48.154;11.536;2023-03-23T18:57:38;7.90;;;4.90;;
3815;SDS011;1923;48.154;11.536;2023-03-23T19:00:07;9.17;;;4.90;;
3815;SDS011;1923;48.154;11.536;2023-03-23T19:02:36;9.97;;;4.57;;
3815;SDS011;1923;48.154;11.536;2023-03-23T19:05:07;8.20;;;4.30;;
3815;SDS011;1923;48.154;11.536;2023-03-23T19:07:36;8.70;;;4.40;;
3815;SDS011;1923;48.154;11.536;2023-03-23T19:10:05;7.07;;;3.60;;
3815;SDS011;1923;48.154;11.536;2023-03-23T19:12:33;9.37;;;4.00;;
3815;SDS011;1923;48.154;11.536;2023-03-23T19:15:01;9.20;;;3.10;;
3815;SDS011;1923;48.154;11.536;2023-03-23T19:17:30;21.00;;;6.90;;
3815;SDS011;1923;48.154;11.536;2023-03-23T19:19:58;10.90;;;4.60;;
3815;SDS011;1923;48.154;11.536;2023-03-23T19:22:31;7.73;;;4.90;;
3815;SDS011;1923;48.154;11.536;2023-03-23T19:25:00;8.73;;;4.30;;
3815;SDS011;1923;48.154;11.536;2023-03-23T19:27:28;10.67;;;4.83;;
3815;SDS011;1923;48.154;11.536;2023-03-23T19:29:56;6.40;;;4.40;;
3815;SDS011;1923;48.154;11.536;2023-03-23T19:32:24;4.57;;;3.10;;
3815;SDS011;1923;48.154;11.536;2023-03-23T19:34:54;12.03;;;6.40;;
3815;SDS011;1923;48.154;11.536;2023-03-23T19:37:43;10.57;;;5.80;;
3815;SDS011;1923;48.154;11.536;2023-03-23T19:40:11;9.65;;;4.95;;
3815;SDS011;1923;48.154;11.536;2023-03-23T19:42:59;10.70;;;5.93;;
3815;SDS011;1923;48.154;11.536;2023-03-23T19:45:28;9.93;;;4.30;;
3815;SDS011;1923;48.154;11.536;2023-03-23T19:47:57;9.73;;;3.63;;
3815;SDS011;1923;48.154;11.536;2023-03-23T19:50:25;7.00;;;3.60;;
3815;SDS011;1923;48.154;11.536;2023-03-23T19:52:55;7.13;;;3.40;;
3815;SDS011;1923;48.154;11.536;2023-03-23T19:55:26;5.40;;;3.47;;
3815;SDS011;1923;48.154;11.536;2023-03-23T19:57:55;5.50;;;3.47;;
3815;SDS011;1923;48.154;11.536;2023-03-23T20:00:23;7.40;;;3.27;;
3815;SDS011;1923;48.154;11.536;2023-03-23T20:02:51;4.50;;;2.93;;
3815;SDS011;1923;48.154;11.536;2023-03-23T20:05:20;7.37;;;4.07;;
3815;SDS011;1923;48.154;11.536;2023-03-23T20:07:48;8.10;;;4.40;;
3815;SDS011;1923;48.154;11.536;2023-03-23T20:10:18;4.70;;;3.40;;
3815;SDS011;1923;48.154;11.536;2023-03-23T20:12:47;5.00;;;2.80;;
3815;SDS011;1923;48.154;11.536;2023-03-23T20:15:15;5.27;;;3.10;;
3815;SDS011;1923;48.154;11.536;2023-03-23T20:17:43;6.70;;;3.67;;
3815;SDS011;1923;48.154;11.536;2023-03-23T20:20:13;4.90;;;3.20;;
3815;SDS011;1923;48.154;11.536;2023-03-23T20:22:41;6.07;;;3.20;;
3815;SDS011;1923;48.154;11.536;2023-03-23T20:25:09;9.10;;;4.07;;
3815;SDS011;1923;48.154;11.536;2023-03-23T20:27:39;7.53;;;3.80;;
3815;SDS011;1923;48.154;11.536;2023-03-23T20:30:07;4.40;;;2.47;;
3815;SDS011;1923;48.154;11.536;2023-03-23T20:32:36;8.40;;;4.93;;
3815;SDS011;1923;48.154;11.536;2023-03-23T20:35:08;6.33;;;3.47;;
3815;SDS011;1923;48.154;11.536;2023-03-23T20:37:38;5.37;;;3.30;;
3815;SDS011;1923;48.154;11.536;2023-03-23T20:40:07;6.57;;;3.93;;
3815;SDS011;1923;48.154;11.536;2023-03-23T20:42:40;5.30;;;3.40;;
3815;SDS011;1923;48.154;11.536;2023-03-23T20:45:09;7.93;;;3.77;;
3815;SDS011;1923;48.154;11.536;2023-03-23T20:47:39;6.83;;;3.37;;
3815;SDS011;1923;48.154;11.536;2023-03-23T20:50:08;7.87;;;4.27;;
3815;SDS011;1923;48.154;11.536;2023-03-23T20:52:37;5.13;;;3.03;;
3815;SDS011;1923;48.154;11.536;2023-03-23T20:55:07;6.90;;;3.43;;
3815;SDS011;1923;48.154;11.536;2023-03-23T20:57:36;9.50;;;4.13;;
3815;SDS011;1923;48.154;11.536;2023-03-23T21:00:07;5.17;;;3.90;;
3815;SDS011;1923;48.154;11.536;2023-03-23T21:02:40;5.60;;;2.70;;
3815;SDS011;1923;48.154;11.536;2023-03-23T21:05:09;6.37;;;3.53;;
3815;SDS011;1923;48.154;11.536;2023-03-23T21:07:37;6.77;;;3.70;;
3815;SDS011;1923;48.154;11.536;2023-03-23T21:10:05;6.03;;;3.03;;
3815;SDS011;1923;48.154;11.536;2023-03-23T21:12:33;5.07;;;3.47;;
3815;SDS011;1923;48.154;11.536;2023-03-23T21:15:02;7.22;;;2.80;;
3815;SDS011;1923;48.154;11.536;2023-03-23T21:17:33;6.82;;;3.15;;
3815;SDS011;1923;48.154;11.536;2023-03-23T21:20:01;4.33;;;2.70;;
3815;SDS011;1923;48.154;11.536;2023-03-23T21:22:31;3.70;;;2.50;;
3815;SDS011;1923;48.154;11.536;2023-03-23T21:25:00;6.07;;;2.97;;
3815;SDS011;1923;48.154;11.536;2023-03-23T21:27:28;10.60;;;3.20;;
3815;SDS011;1923;48.154;11.536;2023-03-23T21:29:56;8.33;;;3.73;;
3815;SDS011;1923;48.154;11.536;2023-03-23T21:32:25;4.53;;;3.07;;
3815;SDS011;1923;48.154;11.536;2023-03-23T21:34:55;5.63;;;3.23;;
3815;SDS011;1923;48.154;11.536;2023-03-23T21:37:27;5.80;;;4.03;;
3815;SDS011;1923;48.154;11.536;2023-03-23T21:39:56;6.40;;;3.20;;
3815;SDS011;1923;48.154;11.536;2023-03-23T21:42:24;6.37;;;3.37;;
3815;SDS011;1923;48.154;11.536;2023-03-23T21:44:56;5.10;;;2.97;;
3815;SDS011;1923;48.154;11.536;2023-03-23T21:47:27;5.60;;;3.10;;
3815;SDS011;1923;48.154;11.536;2023-03-23T21:49:58;7.30;;;3.50;;
3815;SDS011;1923;48.154;11.536;2023-03-23T21:52:27;4.20;;;2.83;;
3815;SDS011;1923;48.154;11.536;2023-03-23T21:54:56;6.03;;;3.50;;
3815;SDS011;1923;48.154;11.536;2023-03-23T21:57:24;9.03;;;3.13;;
3815;SDS011;1923;48.154;11.536;2023-03-23T21:59:53;8.50;;;3.13;;
3815;SDS011;1923;48.154;11.536;2023-03-23T22:02:21;6.23;;;3.00;;
3815;SDS011;1923;48.154;11.536;2023-03-23T22:04:49;4.80;;;3.47;;
3815;SDS011;1923;48.154;11.536;2023-03-23T22:07:21;6.80;;;3.10;;
3815;SDS011;1923;48.154;11.536;2023-03-23T22:09:50;4.40;;;2.97;;
3815;SDS011;1923;48.154;11.536;2023-03-23T22:12:18;5.80;;;2.87;;
3815;SDS011;1923;48.154;11.536;2023-03-23T22:14:46;3.97;;;3.33;;
3815;SDS011;1923;48.154;11.536;2023-03-23T22:17:15;7.37;;;3.10;;
3815;SDS011;1923;48.154;11.536;2023-03-23T22:19:43;5.57;;;3.10;;
3815;SDS011;1923;48.154;11.536;2023-03-23T22:22:11;6.63;;;3.50;;
3815;SDS011;1923;48.154;11.536;2023-03-23T22:24:41;4.13;;;2.93;;
3815;SDS011;1923;48.154;11.536;2023-03-23T22:27:10;5.07;;;2.90;;
3815;SDS011;1923;48.154;11.536;2023-03-23T22:29:38;4.03;;;3.13;;
3815;SDS011;1923;48.154;11.536;2023-03-23T22:32:09;4.27;;;3.10;;
3815;SDS011;1923;48.154;11.536;2023-03-23T22:34:38;5.80;;;3.87;;
3815;SDS011;1923;48.154;11.536;2023-03-23T22:37:06;4.00;;;3.00;;
3815;SDS011;1923;48.154;11.536;2023-03-23T22:39:34;7.93;;;4.00;;
3815;SDS011;1923;48.154;11.536;2023-03-23T22:42:05;6.63;;;3.37;;
3815;SDS011;1923;48.154;11.536;2023-03-23T22:44:35;4.93;;;3.33;;
3815;SDS011;1923;48.154;11.536;2023-03-23T22:47:03;6.23;;;3.40;;
3815;SDS011;1923;48.154;11.536;2023-03-23T22:49:32;7.00;;;3.30;;
3815;SDS011;1923;48.154;11.536;2023-03-23T22:52:02;4.77;;;3.30;;
3815;SDS011;1923;48.154;11.536;2023-03-23T22:54:33;7.73;;;3.40;;
3815;SDS011;1923;48.154;11.536;2023-03-23T22:57:06;7.17;;;3.30;;
3815;SDS011;1923;48.154;11.536;2023-03-23T22:59:34;4.70;;;2.88;;
3815;SDS011;1923;48.154;11.536;2023-03-23T23:02:02;5.13;;;3.10;;
3815;SDS011;1923;48.154;11.536;2023-03-23T23:04:32;4.10;;;2.90;;
3815;SDS011;1923;48.154;11.536;2023-03-23T23:07:03;4.50;;;2.63;;
3815;SDS011;1923;48.154;11.536;2023-03-23T23:09:38;4.97;;;2.93;;
3815;SDS011;1923;48.154;11.536;2023-03-23T23:12:08;4.70;;;3.03;;
3815;SDS011;1923;48.154;11.536;2023-03-23T23:14:37;4.70;;;3.33;;
3815;SDS011;1923;48.154;11.536;2023-03-23T23:17:06;5.00;;;2.40;;